Time;durP1;ratioP1;P1;durP2;ratioP2;P2;SDS_P1;SDS_P2;PMS_P1;PMS_P2;Temp;Humidity;BMP_temperature;BMP_pressure;BME280_temperature;BME280_humidity;BME280_pressure;Samples;Min_cycle;Max_cycle;Signal;HPM_P1;HPM_P2
2022/02/07 00:04:59;;;;;;;;;2.00;2.00;;;;;10.33;79.96;100984.81;4857452;29;45803;-85
2022/02/07 00:07:26;;;;;;;;;2.00;2.00;;;;;10.32;80.98;100983.91;4855847;29;45527;-86
2022/02/07 00:09:52;;;;;;;;;2.33;1.00;;;;;10.32;80.78;100999.88;4840376;29;45467;-86
2022/02/07 00:12:20;;;;;;;;;3.00;0.00;;;;;10.18;81.02;100996.91;4856445;29;45618;-86
2022/02/07 00:14:46;;;;;;;;;3.67;1.00;;;;;10.28;80.65;101020.97;4838211;29;47292;-86
2022/02/07 00:20:35;;;;;;;;;1.00;1.00;;;;;10.16;81.05;101025.22;4854967;29;46097;-85
2022/02/07 00:23:04;;;;;;;;;2.00;2.00;;;;;10.27;80.87;101025.41;4837187;29;44982;-86
2022/02/07 00:25:29;;;;;;;;;2.00;2.00;;;;;10.18;80.89;101025.25;4837092;29;47809;-86
2022/02/07 00:27:55;;;;;;;;;2.33;1.00;;;;;10.18;81.92;101039.44;4836537;29;45405;-86
2022/02/07 00:30:24;;;;;;;;;1.00;1.00;;;;;10.25;82.02;101034.22;4836858;29;45480;-86
2022/02/07 00:32:53;;;;;;;;;1.00;1.00;;;;;10.03;81.92;101044.41;4836064;29;45395;-86
2022/02/07 00:35:22;;;;;;;;;1.00;1.00;;;;;10.11;81.15;101069.38;4835699;29;46734;-86
2022/02/07 00:37:52;;;;;;;;;1.00;1.00;;;;;10.11;80.36;101060.53;4836862;29;45349;-86
2022/02/07 00:48:00;;;;;;;;;0.33;0.00;;;;;9.91;79.79;101084.00;4852783;29;45512;-86
2022/02/07 00:50:29;;;;;;;;;2.00;1.00;;;;;9.94;79.84;101086.75;4854405;29;44818;-86
2022/02/07 00:52:55;;;;;;;;;1.67;1.67;;;;;9.81;79.24;101094.41;4854153;29;45410;-86
2022/02/07 00:55:24;;;;;;;;;4.00;2.33;;;;;9.92;79.78;101105.28;4836015;29;46879;-87
2022/02/07 00:57:49;;;;;;;;;0.00;0.00;;;;;9.82;79.68;101105.94;4852740;29;45571;-87
2022/02/07 01:00:21;;;;;;;;;2.67;1.33;;;;;9.93;79.34;101127.44;4851895;29;45392;-87
2022/02/07 01:02:47;;;;;;;;;1.33;1.00;;;;;9.86;79.90;101147.66;4835866;29;45508;-87
2022/02/07 01:05:15;;;;;;;;;3.33;1.00;;;;;9.93;80.28;101144.28;4852053;29;46172;-85
2022/02/07 01:07:45;;;;;;;;;1.33;1.00;;;;;9.80;80.14;101156.38;4836848;29;45411;-86
2022/02/07 01:10:26;;;;;;;;;0.67;0.67;;;;;9.78;79.61;101149.25;4854841;29;45430;-85
2022/02/07 01:15:44;;;;;;;;;2.00;1.00;;;;;9.81;78.25;101179.41;4854608;29;45480;-85
2022/02/07 01:23:46;;;;;;;;;1.00;1.00;;;;;9.59;78.08;101187.72;4853605;29;45427;-87
2022/02/07 01:46:10;;;;;;;;;2.67;1.00;;;;;9.49;76.98;101220.19;4855021;29;45396;-86
2022/02/07 01:56:09;;;;;;;;;0.67;0.33;;;;;9.14;74.46;101319.25;4853927;29;44841;-85
2022/02/07 01:58:38;;;;;;;;;1.67;0.00;;;;;9.04;73.42;101314.50;4836776;29;46937;-85
2022/02/07 02:01:06;;;;;;;;;1.00;1.00;;;;;9.08;73.45;101313.75;4851790;29;45508;-86
2022/02/07 02:07:15;;;;;;;;;0.00;0.00;;;;;8.96;72.10;101318.69;4855868;29;45457;-86
2022/02/07 02:09:41;;;;;;;;;1.33;0.00;;;;;8.87;69.67;101303.41;4837715;29;46688;-86
2022/02/07 02:12:07;;;;;;;;;2.00;1.00;;;;;8.73;70.07;101313.59;4853442;29;45325;-86
2022/02/07 02:14:43;;;;;;;;;1.00;1.00;;;;;8.88;70.28;101333.47;4836633;29;45425;-85
2022/02/07 02:33:54;;;;;;;;;1.00;1.00;;;;;8.78;68.76;101382.69;4837033;29;45440;-85
2022/02/07 02:46:54;;;;;;;;;0.00;0.00;;;;;8.51;69.54;101410.13;4836236;29;45488;-85
2022/02/07 02:49:21;;;;;;;;;0.33;0.33;;;;;8.52;68.51;101422.50;4819016;29;45568;-86
2022/02/07 02:51:46;;;;;;;;;1.00;1.00;;;;;8.62;69.76;101458.19;4835395;29;45417;-85
2022/02/07 02:54:11;;;;;;;;;2.67;1.33;;;;;8.53;68.16;101440.22;4819241;29;45442;-87
2022/02/07 02:56:38;;;;;;;;;0.67;0.67;;;;;8.46;67.40;101438.22;4818890;29;45350;-86
2022/02/07 02:59:04;;;;;;;;;3.00;1.00;;;;;8.55;67.50;101448.25;4819538;29;45875;-87
2022/02/07 03:01:30;;;;;;;;;3.67;0.33;;;;;8.50;67.21;101437.47;4820847;29;45405;-87
2022/02/07 03:03:56;;;;;;;;;0.67;0.67;;;;;8.49;68.56;101448.03;4838932;29;45265;-86
2022/02/07 03:06:21;;;;;;;;;1.67;1.67;;;;;8.46;68.09;101448.81;4822298;29;45407;-86
2022/02/07 03:08:48;;;;;;;;;0.00;0.00;;;;;8.29;69.00;101415.53;4822854;29;45301;-86
2022/02/07 03:11:17;;;;;;;;;2.00;1.33;;;;;8.38;68.48;101439.66;4821582;29;47256;-85
2022/02/07 03:19:22;;;;;;;;;1.00;0.00;;;;;8.12;68.07;101423.78;4763568;29;45931;-86
2022/02/07 03:21:47;;;;;;;;;1.00;1.00;;;;;8.21;68.32;101441.75;4746913;29;46864;-86
2022/02/07 03:24:13;;;;;;;;;1.00;1.00;;;;;8.10;68.91;101438.72;4747245;29;45512;-86
2022/02/07 03:26:44;;;;;;;;;1.00;1.00;;;;;8.23;69.09;101461.25;4762756;29;45858;-86
2022/02/07 03:29:14;;;;;;;;;2.00;1.00;;;;;8.28;68.85;101490.56;4748006;29;44865;-86
2022/02/07 03:31:40;;;;;;;;;2.00;0.67;;;;;8.24;68.20;101488.63;4764453;29;45618;-85
2022/02/07 03:34:06;;;;;;;;;0.00;0.00;;;;;8.14;68.82;101483.03;4747492;29;45443;-85
2022/02/07 03:36:35;;;;;;;;;0.00;0.00;;;;;8.17;68.99;101479.59;4748508;29;45453;-85
2022/02/07 03:39:02;;;;;;;;;2.33;0.67;;;;;8.11;67.69;101485.56;4763435;29;44940;-86
2022/02/07 03:41:28;;;;;;;;;2.00;2.00;;;;;7.92;67.81;101475.16;4762268;29;47064;-86
2022/02/07 03:43:54;;;;;;;;;1.00;1.00;;;;;8.15;68.34;101515.72;4747140;29;45368;-86
2022/02/07 03:46:19;;;;;;;;;2.33;1.00;;;;;8.14;67.76;101520.13;4761577;29;45290;-87
2022/02/07 03:48:45;;;;;;;;;2.00;1.00;;;;;8.13;69.05;101536.84;4763997;29;45464;-87
2022/02/07 03:51:16;;;;;;;;;0.00;0.00;;;;;8.09;67.74;101518.16;4816170;29;46923;-85
2022/02/07 03:53:42;;;;;;;;;2.00;2.00;;;;;8.04;68.99;101535.59;4819902;29;45453;-86
2022/02/07 03:56:07;;;;;;;;;0.00;0.00;;;;;7.99;67.89;101535.44;4835830;29;45564;-86
2022/02/07 03:58:33;;;;;;;;;0.33;0.33;;;;;8.05;68.68;101550.66;4820612;29;45315;-86
2022/02/07 04:00:59;;;;;;;;;2.33;2.33;;;;;8.01;68.02;101542.59;4820820;29;45440;-86
2022/02/07 04:03:28;;;;;;;;;0.33;0.33;;;;;7.99;69.25;101541.63;4835180;29;45435;-86
2022/02/07 04:05:58;;;;;;;;;1.33;1.33;;;;;7.88;68.37;101537.69;4820634;29;45471;-86
2022/02/07 04:08:40;;;;;;;;;1.00;1.00;;;;;7.97;68.81;101555.66;4820156;29;45539;-85
2022/02/07 04:13:55;;;;;;;;;2.67;2.00;;;;;7.72;68.62;101557.38;4809865;29;44916;-85
2022/02/07 04:16:27;;;;;;;;;1.00;1.00;;;;;7.72;70.08;101552.09;4804544;29;45433;-86
2022/02/07 04:21:18;;;;;;;;;0.00;0.00;;;;;7.62;69.85;101560.53;4820122;29;45911;-87
2022/02/07 04:23:44;;;;;;;;;2.00;2.00;;;;;7.70;69.80;101580.25;4802547;29;45265;-86
2022/02/07 04:26:10;;;;;;;;;2.00;1.00;;;;;7.83;69.42;101602.81;4802935;29;45750;-86
2022/02/07 04:28:35;;;;;;;;;0.33;0.00;;;;;7.76;69.67;101598.13;4801978;29;44960;-85
2022/02/07 04:31:00;;;;;;;;;1.33;1.00;;;;;7.60;70.47;101588.69;4803306;29;46716;-86
2022/02/07 04:33:26;;;;;;;;;1.00;1.00;;;;;7.64;70.93;101602.94;4801753;29;45378;-87
2022/02/07 04:35:52;;;;;;;;;2.00;1.00;;;;;7.85;70.33;101634.66;4801843;29;45491;-87
2022/02/07 04:38:17;;;;;;;;;3.00;1.00;;;;;7.79;70.89;101627.38;4818159;29;45349;-86
2022/02/07 04:40:43;;;;;;;;;5.00;2.00;;;;;7.70;70.64;101612.03;4816828;29;45434;-86
2022/02/07 04:43:12;;;;;;;;;2.33;0.00;;;;;7.73;71.19;101616.53;4817103;29;45583;-86
2022/02/07 04:51:28;;;;;;;;;2.00;0.00;;;;;7.82;69.75;101644.28;4817438;29;45413;-87
2022/02/07 05:01:41;;;;;;;;;1.00;0.67;;;;;7.82;70.08;101657.53;4817425;29;45401;-85
2022/02/07 05:04:19;;;;;;;;;0.33;0.33;;;;;7.72;71.18;101654.47;4817698;29;45440;-86
2022/02/07 05:15:05;;;;;;;;;1.00;1.00;;;;;7.66;70.92;101662.16;4834810;29;44841;-86
2022/02/07 05:17:32;;;;;;;;;5.00;0.00;;;;;7.50;70.26;101665.91;4835550;29;45365;-86
2022/02/07 05:19:57;;;;;;;;;3.00;2.00;;;;;7.48;71.75;101664.94;4818325;29;45359;-86
2022/02/07 05:22:29;;;;;;;;;2.00;2.00;;;;;7.40;71.86;101649.66;4818464;29;45474;-86
2022/02/07 05:24:57;;;;;;;;;0.00;0.00;;;;;7.51;71.49;101670.34;4834611;29;45472;-86
2022/02/07 05:27:25;;;;;;;;;2.33;1.00;;;;;7.67;71.19;101696.63;4835643;29;45409;-87
2022/02/07 05:29:51;;;;;;;;;1.00;1.00;;;;;7.53;71.60;101688.09;4818546;29;45437;-86
2022/02/07 05:32:20;;;;;;;;;1.00;1.00;;;;;7.50;71.22;101681.81;4819028;29;46927;-86
2022/02/07 05:34:45;;;;;;;;;6.00;1.33;;;;;7.50;71.32;101693.28;4822572;29;44808;-87
2022/02/07 05:37:13;;;;;;;;;1.00;1.00;;;;;7.53;71.46;101700.44;4822377;29;44940;-86
2022/02/07 05:39:41;;;;;;;;;2.00;2.00;;;;;7.37;71.75;101680.34;4821776;29;45492;-87
2022/02/07 05:42:09;;;;;;;;;1.00;1.00;;;;;7.50;71.36;101713.56;4837398;29;47589;-86
2022/02/07 05:44:39;;;;;;;;;4.00;3.00;;;;;7.59;72.66;101716.56;4820704;29;45405;-87
2022/02/07 05:47:06;;;;;;;;;7.00;2.33;;;;;7.49;72.78;101723.22;4819651;29;45474;-86
2022/02/07 05:49:36;;;;;;;;;2.67;2.67;;;;;7.43;72.81;101711.47;4836166;29;45527;-87
2022/02/07 05:52:01;;;;;;;;;2.00;1.00;;;;;7.60;73.11;101764.31;4817652;29;46926;-87
2022/02/07 05:54:27;;;;;;;;;2.00;2.00;;;;;7.54;72.41;101757.84;4835164;29;45388;-86
2022/02/07 05:56:52;;;;;;;;;5.00;3.00;;;;;7.46;72.75;101743.38;4839880;29;45475;-86
2022/02/07 05:59:19;;;;;;;;;3.67;2.67;;;;;7.43;72.20;101737.94;4836918;29;45631;-87
2022/02/07 06:01:45;;;;;;;;;0.33;0.33;;;;;7.38;72.92;101740.41;4851840;29;46999;-85
2022/02/07 06:04:11;;;;;;;;;2.33;1.00;;;;;7.42;73.08;101758.22;4836795;29;44831;-86
2022/02/07 06:06:46;;;;;;;;;2.00;2.00;;;;;7.53;73.66;101761.31;4836891;29;45491;-85
2022/02/07 06:09:11;;;;;;;;;2.00;1.33;;;;;7.26;73.14;101738.13;4851117;29;45596;-86
2022/02/07 06:11:37;;;;;;;;;1.00;1.00;;;;;7.37;73.29;101744.81;4851700;29;45835;-86
2022/02/07 06:14:03;;;;;;;;;2.00;2.00;;;;;7.51;73.09;101784.19;4836117;29;45411;-87
2022/02/07 06:16:31;;;;;;;;;3.33;2.00;;;;;7.42;73.45;101763.50;4836438;29;45405;-86
2022/02/07 06:18:59;;;;;;;;;0.33;0.33;;;;;7.55;73.41;101789.69;4837101;29;45343;-86
2022/02/07 06:21:26;;;;;;;;;2.00;2.00;;;;;7.27;73.01;101753.19;4836656;29;46942;-85
2022/02/07 06:23:51;;;;;;;;;2.00;2.00;;;;;7.48;73.84;101790.25;4836484;29;45459;-86
2022/02/07 06:26:17;;;;;;;;;5.00;5.00;;;;;7.22;73.86;101754.72;4836432;29;45594;-86
2022/02/07 06:28:42;;;;;;;;;2.00;2.00;;;;;7.51;73.86;101808.88;4837721;29;45555;-88
2022/02/07 06:31:09;;;;;;;;;7.00;3.00;;;;;7.30;74.46;101763.88;4853891;29;46407;-86
2022/02/07 06:33:35;;;;;;;;;6.00;2.67;;;;;7.45;74.67;101805.09;4854771;29;45499;-86
2022/02/07 06:36:01;;;;;;;;;7.00;3.00;;;;;7.52;74.57;101817.75;4837826;29;45429;-87
2022/02/07 06:38:35;;;;;;;;;5.00;4.33;;;;;7.58;74.72;101802.16;4837890;29;45738;-87
2022/02/07 06:41:01;;;;;;;;;5.00;2.33;;;;;7.38;74.74;101799.53;4836497;29;46976;-85
2022/02/07 06:43:26;;;;;;;;;2.00;1.00;;;;;7.50;74.51;101819.44;4836317;29;45365;-86
2022/02/07 06:45:52;;;;;;;;;4.67;2.67;;;;;7.51;74.85;101829.19;4836578;29;45368;-87
2022/02/07 06:48:21;;;;;;;;;3.00;3.00;;;;;7.40;74.59;101797.84;4836952;29;45513;-85
2022/02/07 06:50:46;;;;;;;;;2.67;2.67;;;;;7.43;74.67;101817.34;4835619;29;47139;-85
2022/02/07 06:53:12;;;;;;;;;1.00;1.00;;;;;7.47;74.16;101835.16;4836825;29;45536;-88
2022/02/07 06:55:41;;;;;;;;;2.00;2.00;;;;;7.27;74.80;101806.09;4837199;29;45523;-86
2022/02/07 06:58:08;;;;;;;;;2.33;1.67;;;;;7.39;74.54;101840.13;4836764;29;45332;-86
2022/02/07 07:00:44;;;;;;;;;2.67;1.33;;;;;7.25;74.35;101831.59;4837694;29;47448;-87
2022/02/07 07:03:20;;;;;;;;;2.67;2.33;;;;;7.44;74.85;101858.88;4853414;29;45479;-86
2022/02/07 07:05:51;;;;;;;;;3.00;3.00;;;;;7.28;75.21;101857.28;4836731;29;45382;-86
2022/02/07 07:08:17;;;;;;;;;2.67;2.00;;;;;7.09;75.46;101829.97;4837265;29;45411;-87
2022/02/07 07:10:47;;;;;;;;;3.67;1.67;;;;;7.04;75.54;101817.38;4851432;29;45530;-87
2022/02/07 07:13:18;;;;;;;;;2.33;2.33;;;;;7.36;75.87;101867.34;4833189;29;45907;-86
2022/02/07 07:16:00;;;;;;;;;3.00;3.00;;;;;7.36;75.42;101859.41;4846354;29;45715;-86
2022/02/07 07:18:31;;;;;;;;;1.33;1.33;;;;;7.50;76.20;101867.09;4824785;29;45342;-85
2022/02/07 07:20:56;;;;;;;;;4.33;2.00;;;;;7.20;75.68;101841.03;4828961;29;47229;-87
2022/02/07 07:23:22;;;;;;;;;2.00;2.00;;;;;7.45;76.38;101895.06;4842592;29;44872;-85
2022/02/07 07:25:47;;;;;;;;;2.00;2.00;;;;;7.34;76.13;101865.50;4837177;29;44978;-86
2022/02/07 07:28:15;;;;;;;;;2.00;2.00;;;;;7.34;75.86;101884.91;4847187;29;45530;-86
2022/02/07 07:34:03;;;;;;;;;3.00;2.00;;;;;7.43;76.44;101886.16;4836126;29;45476;-88
2022/02/07 07:36:45;;;;;;;;;5.33;5.33;;;;;7.41;76.25;101871.13;4852654;29;45775;-85
2022/02/07 07:39:29;;;;;;;;;3.00;3.00;;;;;7.61;76.20;101900.22;4836191;29;45639;-86
2022/02/07 07:41:57;;;;;;;;;5.00;5.00;;;;;7.56;76.43;101926.50;4832306;29;47233;-86
2022/02/07 07:47:47;;;;;;;;;4.33;3.67;;;;;7.66;76.71;101956.06;4850175;29;45695;-87
2022/02/07 07:50:24;;;;;;;;;3.00;3.00;;;;;7.65;76.56;101926.00;4822849;29;45447;-87
2022/02/07 08:04:13;;;;;;;;;11.33;7.33;;;;;7.92;76.24;101970.47;4856877;29;46312;-88
2022/02/07 08:07:15;;;;;;;;;3.67;3.67;;;;;7.97;75.98;101987.44;4828151;29;45503;-87
2022/02/07 08:12:49;;;;;;;;;6.00;3.00;;;;;8.07;75.91;101994.97;4892308;23;46653;-87
2022/02/07 08:15:34;;;;;;;;;6.67;5.67;;;;;8.12;75.91;102024.31;4860228;29;46316;-86
2022/02/07 08:17:59;;;;;;;;;8.67;8.67;;;;;7.81;76.11;101989.41;4826249;29;44873;-85
2022/02/07 08:21:05;;;;;;;;;7.67;7.67;;;;;7.93;75.73;101966.97;4849236;29;45497;-86
2022/02/07 08:23:43;;;;;;;;;7.00;6.00;;;;;8.29;75.73;102028.63;4782828;29;45664;-86
2022/02/07 08:26:22;;;;;;;;;10.67;6.67;;;;;8.33;75.55;102029.66;4768909;29;45667;-85
2022/02/07 08:29:27;;;;;;;;;11.00;6.00;;;;;8.14;75.46;101999.72;4769983;29;45484;-86
2022/02/07 08:32:11;;;;;;;;;5.00;3.67;;;;;8.45;75.00;102043.50;4768046;29;45689;-83
2022/02/07 08:34:50;;;;;;;;;6.00;5.00;;;;;8.52;75.10;102048.22;4768833;29;44961;-86
2022/02/07 08:37:19;;;;;;;;;7.67;6.00;;;;;8.55;75.51;102058.06;4780363;29;45875;-84
2022/02/07 08:39:56;;;;;;;;;5.33;5.00;;;;;8.26;74.97;102023.22;4796690;29;45228;-84
2022/02/07 08:42:33;;;;;;;;;9.33;6.00;;;;;8.53;75.11;102050.03;4821617;29;44882;-86
2022/02/07 08:45:22;;;;;;;;;9.33;6.67;;;;;8.48;75.00;102018.84;4822337;29;45725;-85
2022/02/07 08:48:28;;;;;;;;;11.67;8.00;;;;;8.48;74.94;102011.78;4805392;29;47760;-84
2022/02/07 08:51:23;;;;;;;;;11.67;10.33;;;;;8.77;74.56;102046.63;4833175;29;44887;-85
2022/02/07 09:10:15;;;;;;;;;4.00;4.00;;;;;8.91;73.56;102085.25;4669555;30;45468;-85
2022/02/07 09:13:31;;;;;;;;;5.67;4.00;;;;;9.08;74.34;102108.94;4709418;30;47155;-85
2022/02/07 09:18:46;;;;;;;;;5.00;3.00;;;;;8.92;74.13;102116.25;4705354;30;45541;-85
2022/02/07 09:21:47;;;;;;;;;;;;;;;;;;;;;
2022/02/07 09:24:14;;;;;;;;;4.00;3.33;;;;;9.10;73.84;102144.41;4744305;29;74979;-88
2022/02/07 09:26:41;;;;;;;;;6.00;4.33;;;;;8.81;73.86;102106.94;4840012;29;44933;-86
2022/02/07 09:29:07;;;;;;;;;3.00;3.00;;;;;9.10;73.04;102160.34;4809031;29;45287;-89
2022/02/07 09:31:36;;;;;;;;;3.33;2.67;;;;;8.95;72.12;102126.09;4835830;29;45327;-87
2022/02/07 09:34:07;;;;;;;;;6.33;3.00;;;;;9.08;73.21;102140.78;4832366;29;45528;-86
2022/02/07 09:36:37;;;;;;;;;8.33;3.00;;;;;9.22;72.86;102166.16;4848433;29;44785;-87
2022/02/07 09:39:09;;;;;;;;;5.33;3.00;;;;;9.26;73.33;102189.34;4836968;29;45365;-87
2022/02/07 09:41:35;;;;;;;;;2.67;2.00;;;;;9.27;73.18;102207.09;4823590;29;44918;-87
2022/02/07 09:44:08;;;;;;;;;6.00;6.00;;;;;9.06;72.67;102169.91;4840239;29;46976;-86
2022/02/07 09:46:54;;;;;;;;;3.67;3.67;;;;;9.31;72.86;102222.31;4836442;29;45358;-83
2022/02/07 09:49:22;;;;;;;;;7.00;6.00;;;;;9.35;71.81;102229.56;4846679;29;45783;-87
2022/02/07 09:51:49;;;;;;;;;5.33;2.00;;;;;9.24;70.68;102206.97;4845832;29;45444;-87
2022/02/07 09:54:20;;;;;;;;;3.00;1.67;;;;;9.30;70.84;102212.53;4843519;29;46866;-86
2022/02/07 09:56:48;;;;;;;;;3.33;3.33;;;;;9.37;71.29;102230.56;4842926;29;45381;-87
2022/02/07 09:59:17;;;;;;;;;5.33;3.67;;;;;9.41;71.62;102243.13;4825221;29;45914;-87
2022/02/07 10:20:56;;;;;;;;;6.33;4.67;;;;;9.23;69.27;102223.75;4839092;29;44982;-85
2022/02/07 10:35:06;;;;;;;;;3.33;3.00;;;;;9.80;69.89;102260.66;4837576;29;45380;-88
2022/02/07 10:38:04;;;;;;;;;3.67;3.67;;;;;9.73;70.50;102232.91;4836223;29;44976;-86
2022/02/07 10:44:05;;;;;;;;;7.00;3.67;;;;;10.10;69.27;102284.94;4836430;29;44887;-85
2022/02/07 10:46:55;;;;;;;;;4.00;4.00;;;;;10.00;66.95;102256.19;4827038;29;45460;-86
2022/02/07 10:49:32;;;;;;;;;2.00;0.00;;;;;10.02;65.63;102273.09;4809589;29;45457;-85
2022/02/07 10:52:03;;;;;;;;;1.33;1.33;;;;;9.98;67.39;102269.41;4830691;29;46276;-86
2022/02/07 10:55:26;;;;;;;;;4.00;1.33;;;;;10.13;67.63;102278.84;4823754;29;45593;-86
2022/02/07 10:58:26;;;;;;;;;3.00;3.00;;;;;10.11;66.64;102285.84;4780503;29;45491;-86
2022/02/07 11:04:16;;;;;;;;;4.00;3.00;;;;;9.91;66.33;102245.16;4780829;29;45338;-88
2022/02/07 11:06:48;;;;;;;;;2.33;2.00;;;;;9.97;63.31;102266.66;4783045;29;44810;-86
2022/02/07 11:09:39;;;;;;;;;3.67;2.33;;;;;9.92;64.32;102266.50;4781078;29;45462;-85
2022/02/07 11:15:05;;;;;;;;;3.00;2.00;;;;;10.05;63.23;102283.84;4782328;29;45294;-85
2022/02/07 11:20:41;;;;;;;;;3.33;3.33;;;;;10.12;65.72;102262.00;4779286;29;45609;-84
2022/02/07 11:28:41;;;;;;;;;9.00;7.67;;;;;10.40;65.63;102255.13;4786761;29;44939;-86
2022/02/07 11:31:42;;;;;;;;;7.00;3.67;;;;;10.60;65.44;102262.16;4787348;29;45567;-84
2022/02/07 11:34:53;;;;;;;;;;;;;;;;;;;;;
2022/02/07 11:37:28;;;;;;;;;3.33;2.33;;;;;10.70;65.26;102270.47;4730956;30;74619;-85
2022/02/07 11:39:54;;;;;;;;;4.00;4.00;;;;;10.48;64.20;102244.78;4743191;30;45455;-84
2022/02/07 11:42:24;;;;;;;;;6.00;3.33;;;;;10.70;63.49;102268.69;4749650;29;45348;-85
2022/02/07 11:45:24;;;;;;;;;4.00;3.00;;;;;10.86;63.54;102291.47;4733336;29;46432;-88
2022/02/07 11:47:50;;;;;;;;;7.33;3.00;;;;;10.63;63.49;102261.34;4742530;29;45883;-86
2022/02/07 11:50:22;;;;;;;;;6.00;4.00;;;;;10.87;63.33;102290.66;4734033;30;45759;-86
2022/02/07 11:55:55;;;;;;;;;3.00;2.00;;;;;10.87;61.11;102303.06;4713443;29;45073;-86
2022/02/07 11:58:31;;;;;;;;;5.00;3.67;;;;;10.89;62.48;102288.94;4706546;30;45235;-87
2022/02/07 12:01:40;;;;;;;;;3.00;1.00;;;;;11.04;60.72;102296.59;4714223;30;45523;-84
2022/02/07 12:15:45;;;;;;;;;3.00;3.00;;;;;11.00;57.41;102276.91;4812226;29;45462;-85
2022/02/07 12:18:14;;;;;;;;;2.00;2.00;;;;;10.98;61.18;102280.38;4807740;29;45446;-86
2022/02/07 12:21:07;;;;;;;;;;;;;;;;;;;;;
2022/02/07 12:27:00;;;;;;;;;3.00;2.67;;;;;10.90;62.20;102276.53;4822304;29;45439;-85
2022/02/07 12:29:48;;;;;;;;;1.00;1.00;;;;;10.94;60.21;102284.69;4809559;29;45326;-87
2022/02/07 12:32:54;;;;;;;;;3.00;2.00;;;;;10.78;58.76;102239.72;4823491;29;45236;-87
2022/02/07 12:35:48;;;;;;;;;3.00;3.00;;;;;11.05;60.76;102281.50;4820768;29;44982;-86
2022/02/07 12:38:38;;;;;;;;;;;;;;;;;;;;;
2022/02/07 12:41:13;;;;;;;;;1.33;1.00;;;;;11.08;60.58;102265.66;4834604;29;65281;-87
2022/02/07 12:46:54;;;;;;;;;2.00;2.00;;;;;11.20;59.44;102267.00;4763668;29;46605;-86
2022/02/07 12:49:23;;;;;;;;;2.00;2.00;;;;;11.30;60.46;102270.00;4793610;29;44858;-84
2022/02/07 12:51:51;;;;;;;;;0.67;0.67;;;;;11.43;56.38;102289.97;4783851;29;45416;-86
2022/02/07 12:54:37;;;;;;;;;3.00;1.00;;;;;11.28;56.86;102277.94;4770910;29;45473;-86
2022/02/07 12:57:09;;;;;;;;;3.00;1.67;;;;;11.23;59.64;102271.56;4792730;29;45533;-87
2022/02/07 13:00:04;;;;;;;;;2.33;2.00;;;;;11.31;60.50;102270.06;4770981;29;44972;-86
2022/02/07 13:02:33;;;;;;;;;3.00;3.00;;;;;11.22;60.63;102227.13;4764826;29;45625;-86
2022/02/07 13:04:58;;;;;;;;;2.00;2.00;;;;;11.26;60.32;102223.72;4783480;29;45573;-86
2022/02/07 13:10:53;;;;;;;;;4.33;2.00;;;;;11.70;59.99;102282.97;4771435;29;45426;-86
2022/02/07 13:13:38;;;;;;;;;4.00;2.00;;;;;11.50;60.51;102249.41;4779905;29;45467;-85
2022/02/07 13:16:12;;;;;;;;;1.67;1.67;;;;;11.59;60.10;102281.66;4784008;29;45586;-86
2022/02/07 13:18:43;;;;;;;;;3.33;2.67;;;;;11.72;59.92;102281.25;4795264;29;45537;-86
2022/02/07 13:21:18;;;;;;;;;3.00;2.00;;;;;11.51;59.18;102246.78;4788041;29;44798;-85
2022/02/07 13:23:48;;;;;;;;;2.00;1.00;;;;;11.54;58.30;102251.31;4817836;29;45909;-84
2022/02/07 13:26:23;;;;;;;;;2.33;2.33;;;;;11.61;58.89;102240.00;4819653;29;45864;-85
2022/02/07 13:28:48;;;;;;;;;3.33;2.00;;;;;11.54;59.12;102256.66;4803591;29;44969;-84
2022/02/07 13:31:29;;;;;;;;;3.67;3.00;;;;;11.74;58.42;102275.97;4824097;29;44932;-84
2022/02/07 13:33:57;;;;;;;;;4.33;2.67;;;;;11.53;55.85;102260.16;4820838;29;45084;-84
2022/02/07 13:36:50;;;;;;;;;1.67;1.67;;;;;11.46;57.10;102266.13;4814055;29;46181;-88
2022/02/07 13:39:19;;;;;;;;;4.00;1.00;;;;;11.27;58.47;102251.25;4816593;29;45400;-86
2022/02/07 13:42:04;;;;;;;;;0.00;0.00;;;;;11.59;56.88;102310.97;4792818;29;45042;-85
2022/02/07 13:44:32;;;;;;;;;2.00;2.00;;;;;11.39;56.92;102279.25;4801832;29;45327;-86
2022/02/07 13:47:05;;;;;;;;;4.00;3.00;;;;;11.28;57.66;102266.38;4820792;29;45369;-86
2022/02/07 13:49:32;;;;;;;;;1.33;1.00;;;;;11.27;56.86;102273.47;4806654;29;45676;-84
2022/02/07 13:52:08;;;;;;;;;1.67;1.00;;;;;11.43;57.58;102305.97;4806272;29;45497;-85
2022/02/07 13:54:36;;;;;;;;;1.67;1.67;;;;;11.30;57.39;102307.28;4815295;29;45726;-85
2022/02/07 13:57:31;;;;;;;;;4.00;2.33;;;;;11.18;58.70;102278.47;4800970;29;47428;-86
2022/02/07 14:00:13;;;;;;;;;2.33;2.33;;;;;11.35;58.59;102309.28;4798519;29;44804;-85
2022/02/07 14:02:45;;;;;;;;;2.33;2.00;;;;;11.20;58.63;102280.31;4805812;29;45495;-85
2022/02/07 14:05:11;;;;;;;;;4.00;3.00;;;;;11.36;59.01;102295.09;4802967;29;45974;-84
2022/02/07 14:08:01;;;;;;;;;1.00;1.00;;;;;11.53;58.29;102295.72;4804776;29;46050;-84
2022/02/07 14:10:35;;;;;;;;;2.00;1.00;;;;;11.57;57.79;102302.97;4801992;29;45413;-85
2022/02/07 14:13:01;;;;;;;;;3.00;2.00;;;;;11.55;57.90;102275.34;4823506;29;44878;-86
2022/02/07 14:15:30;;;;;;;;;4.00;2.00;;;;;11.65;58.36;102279.22;4827088;29;45393;-86
2022/02/07 14:17:56;;;;;;;;;2.00;2.00;;;;;11.72;58.15;102278.59;4818576;29;45474;-87
2022/02/07 14:20:30;;;;;;;;;2.00;2.00;;;;;11.72;57.68;102261.69;4820886;29;44929;-87
2022/02/07 14:22:56;;;;;;;;;4.00;1.00;;;;;11.95;57.78;102286.47;4829253;29;45515;-88
2022/02/07 14:25:32;;;;;;;;;3.00;3.00;;;;;12.15;56.38;102289.81;4856502;29;44727;-86
2022/02/07 14:28:00;;;;;;;;;3.00;2.00;;;;;12.14;56.04;102283.56;4825945;29;46182;-85
2022/02/07 14:30:30;;;;;;;;;4.00;2.00;;;;;12.21;56.59;102288.22;4839046;29;46750;-86
2022/02/07 14:33:03;;;;;;;;;4.00;1.00;;;;;12.31;56.67;102291.22;4843616;29;45039;-86
2022/02/07 14:35:32;;;;;;;;;2.33;1.33;;;;;12.42;56.21;102297.75;4816469;29;44864;-87
2022/02/07 14:38:10;;;;;;;;;1.00;1.00;;;;;12.46;56.32;102296.09;4820714;29;45390;-85
2022/02/07 14:40:41;;;;;;;;;0.00;0.00;;;;;12.52;55.41;102296.28;4809813;29;44921;-86
2022/02/07 14:43:09;;;;;;;;;2.33;2.33;;;;;12.41;55.37;102275.53;4838209;29;44917;-86
2022/02/07 14:45:43;;;;;;;;;2.00;1.00;;;;;12.48;55.39;102267.72;4847180;29;45414;-86
2022/02/07 14:48:10;;;;;;;;;3.67;2.00;;;;;12.57;55.63;102290.25;4830752;29;47192;-85
2022/02/07 14:50:36;;;;;;;;;2.00;2.00;;;;;12.58;55.57;102281.41;4836950;29;45383;-87
2022/02/07 14:53:06;;;;;;;;;5.33;1.00;;;;;12.53;55.40;102260.75;4811729;29;45423;-86
2022/02/07 14:55:52;;;;;;;;;2.33;2.33;;;;;12.60;55.01;102284.09;4840324;29;44891;-86
2022/02/07 14:58:19;;;;;;;;;5.33;4.00;;;;;12.54;55.81;102284.84;4837256;29;47139;-86
2022/02/07 15:00:46;;;;;;;;;2.00;2.00;;;;;12.47;55.43;102265.91;4813512;29;45385;-87
2022/02/07 15:03:14;;;;;;;;;1.33;1.33;;;;;12.43;55.25;102264.91;4843872;29;45340;-85
2022/02/07 15:05:50;;;;;;;;;3.00;2.33;;;;;12.46;56.18;102261.41;4847296;29;45297;-85
2022/02/07 15:08:27;;;;;;;;;4.00;2.00;;;;;12.63;54.95;102288.66;4832888;29;46749;-85
2022/02/07 15:10:59;;;;;;;;;1.00;1.00;;;;;12.61;55.06;102294.81;4833896;29;45683;-85
2022/02/07 15:13:31;;;;;;;;;3.67;3.33;;;;;12.31;55.56;102256.53;4841116;29;45027;-85
2022/02/07 15:15:57;;;;;;;;;4.00;2.67;;;;;12.51;55.32;102303.41;4838568;29;44886;-86
2022/02/07 15:18:29;;;;;;;;;4.67;3.00;;;;;12.39;53.71;102290.59;4852493;29;45436;-84
2022/02/07 15:21:02;;;;;;;;;4.33;4.33;;;;;12.21;54.06;102279.34;4842384;29;46509;-87
2022/02/07 15:23:31;;;;;;;;;2.67;2.67;;;;;12.05;54.16;102277.03;4817325;29;45559;-84
2022/02/07 15:26:01;;;;;;;;;2.00;2.00;;;;;12.08;55.18;102285.13;4826609;29;44896;-85
2022/02/07 15:28:28;;;;;;;;;1.00;1.00;;;;;12.13;55.59;102295.09;4827537;29;45440;-85
2022/02/07 15:34:17;;;;;;;;;1.67;1.00;;;;;12.15;54.52;102301.38;4841319;29;45169;-85
2022/02/07 15:36:43;;;;;;;;;2.67;1.67;;;;;12.09;55.07;102308.28;4841666;29;45100;-85
2022/02/07 15:39:14;;;;;;;;;2.67;2.67;;;;;12.08;55.23;102310.03;4834892;29;45362;-85
2022/02/07 15:41:43;;;;;;;;;2.67;2.00;;;;;11.99;55.57;102299.97;4859037;29;44917;-85
2022/02/07 15:44:12;;;;;;;;;4.00;1.00;;;;;11.79;54.70;102285.91;4841869;29;44826;-84
2022/02/07 15:50:05;;;;;;;;;5.67;3.00;;;;;11.52;53.50;102263.69;4853371;29;45405;-84
2022/02/07 15:52:32;;;;;;;;;4.67;3.00;;;;;11.57;55.04;102283.38;4830694;29;44998;-85